• Join FlightAware (Why Join?)
  • Login
  • US Flag 
11:29AM EDT


 

Airport Tracker/Info


-or-


 

Live Flight TrackerFlight Track Log ✈ SKW5594 ✈ 25-05-2013 ✈ KLAX - KAUS

Flight Track Log - Related Links

Times and Time Zones

All times are in EDT time to prevent confusion due to time zone crossing. See the SKW5594 flight status page for this flight to view local times or setup timezone preferences in your user account.

Time Position Orientation Groundspeed Altitude Reporting Facility
EDT Latitude Longitude Course Direction KTS MPH feet Rate Location/Type
03:29PM 33.9242 -118.4622 231° Southwest 186 214 2,300  Level Los Angeles Center
03:30PM 33.8844 -118.5219 231° Southwest 228 262 4,200 2,040 Climbing Los Angeles Center
03:31PM 33.8247 -118.5533 204° Southwest 270 311 6,600 2,460 Climbing Los Angeles Center
03:32PM 33.7328 -118.5303 168° South 287 330 9,800 2,160 Climbing Los Angeles Center
03:34PM 33.6717 -118.4347 128° Southeast 338 389 11,600 1,800 Climbing Los Angeles Center
03:35PM 33.6433 -118.3228 107° East 363 418 13,600 1,800 Climbing Los Angeles Center
03:36PM 33.6447 -118.2017 89° East 372 428 15,400 1,740 Climbing Los Angeles Center
03:37PM 33.6439 -118.0447 90° East 396 456 17,300 1,680 Climbing Los Angeles Center
03:38PM 33.6439 -117.9086 90° East 409 471 18,900 1,440 Climbing Los Angeles Center
03:39PM 33.6433 -117.7681 90° East 422 486 20,300 1,440 Climbing Los Angeles Center
03:40PM 33.6428 -117.6217 90° East 438 504 21,900 1,500 Climbing Los Angeles Center
03:41PM 33.6417 -117.4736 90° East 444 511 23,400 1,380 Climbing Los Angeles Center
03:42PM 33.6411 -117.3244 90° East 450 518 24,800 1,320 Climbing Los Angeles Center
03:43PM 33.6397 -117.1392 90° East 462 532 26,200 1,140 Climbing Los Angeles Center
03:44PM 33.6228 -116.9833 97° East 478 550 27,200 900 Climbing Los Angeles Center
03:45PM 33.6050 -116.8281 98° East 476 548 28,100 840 Climbing Los Angeles Center
03:46PM 33.5853 -116.6664 98° East 485 558 29,000 780 Climbing Los Angeles Center
03:47PM 33.5642 -116.5028 99° East 492 566 29,700 720 Climbing Los Angeles Center
03:48PM 33.5422 -116.3364 99° East 502 578 30,500 720 Climbing Los Angeles Center
03:49PM 33.5222 -116.1683 98° East 505 581 31,300 780 Climbing Los Angeles Center
03:50PM 33.4903 -115.9319 99° East 511 588 32,400 780 Climbing Los Angeles Center
03:51PM 33.4678 -115.7639 99° East 509 586 33,200 780 Climbing Los Angeles Center
03:52PM 33.4450 -115.5964 99° East 508 585 34,100 780 Climbing Los Angeles Center
03:53PM 33.4225 -115.4286 99° East 510 587 34,900 720 Climbing Los Angeles Center
03:55PM 33.3944 -115.2286 99° East 508 585 35,800 720 Climbing Los Angeles Center
03:56PM 33.3689 -115.0622 100° East 507 583 36,600 840 Climbing Los Angeles Center
03:57PM 33.3425 -114.8642 99° East 506 582 37,600 720 Climbing Los Angeles Center
03:58PM 33.3200 -114.7031 99° East 492 566 38,200 540 Climbing Los Angeles Center
03:59PM 33.2961 -114.5419 100° East 491 565 38,800 360 Climbing Los Angeles Center
04:00PM 33.2719 -114.3833 100° East 487 560 39,000 60 Climbing Los Angeles Center
04:01PM 33.2503 -114.2189 99° East 498 573 39,000  Level Los Angeles Center
04:02PM 33.2272 -114.0536 99° East 502 578 39,000  Level Los Angeles Center
04:02PM 33.2167 -113.9753 99° East 504 580 39,000  Level Albuquerque Center
04:03PM 33.1975 -113.8542 101° East 509 586 39,000  Level Los Angeles Center
04:04PM 33.1719 -113.6878 100° East 510 587 39,000  Level Los Angeles Center
04:05PM 33.1472 -113.5200 100° East 513 590 39,000  Level Los Angeles Center
04:05PM 33.1356 -113.4386 100° East 513 590 39,000  Level Albuquerque Center
04:06PM 33.1108 -113.2703 100° East 514 592 39,000  Level Albuquerque Center
04:07PM 33.0942 -113.1006 97° East 514 592 39,000  Level Albuquerque Center
04:08PM 33.0764 -112.9300 97° East 514 592 39,000  Level Albuquerque Center
04:09PM 33.0594 -112.7597 97° East 514 592 39,000  Level Albuquerque Center
04:10PM 33.0414 -112.5892 97° East 515 593 39,000  Level Albuquerque Center
04:11PM 33.0225 -112.4194 98° East 516 594 39,000  Level Albuquerque Center
04:13PM 33.0047 -112.2542 97° East 517 595 39,000  Level Albuquerque Center
04:14PM 32.9836 -112.0514 97° East 518 596 39,000  Level Albuquerque Center
04:15PM 32.9642 -111.8836 98° East 516 594 39,000  Level Albuquerque Center
04:16PM 32.9464 -111.7164 97° East 514 592 39,000  Level Albuquerque Center
04:17PM 32.9275 -111.5483 98° East 515 593 39,000  Level Albuquerque Center
04:18PM 32.9083 -111.3825 98° East 510 587 39,000  Level Albuquerque Center
04:19PM 32.8886 -111.2144 98° East 515 593 39,000  Level Albuquerque Center
04:20PM 32.8706 -111.0467 97° East 514 592 39,000  Level Albuquerque Center
04:21PM 32.8456 -110.8469 98° East 513 590 39,000  Level Albuquerque Center
04:22PM 32.8253 -110.6814 98° East 510 587 39,000  Level Albuquerque Center
04:23PM 32.8081 -110.5369 98° East 509 586 39,000  Level Albuquerque Center
04:24PM 32.7844 -110.3383 98° East 511 588 39,000  Level Albuquerque Center
04:25PM 32.7644 -110.1736 98° East 509 586 39,000  Level Albuquerque Center
04:26PM 32.7425 -110.0100 99° East 509 586 39,000  Level Albuquerque Center
04:27PM 32.7306 -109.8511 95° East 489 563 39,000  Level Albuquerque Center
04:28PM 32.6992 -109.6833 102° East 505 581 39,000  Level Albuquerque Center
04:29PM 32.6747 -109.4906 99° East 500 575 39,000  Level Albuquerque Center
04:30PM 32.6531 -109.3314 99° East 497 572 39,000  Level Albuquerque Center
04:31PM 32.6325 -109.1728 99° East 497 572 39,000  Level Albuquerque Center
04:32PM 32.6114 -109.0150 99° East 494 568 39,000  Level Albuquerque Center
04:33PM 32.5900 -108.8564 99° East 496 571 39,000  Level Albuquerque Center
04:34PM 32.5642 -108.6678 99° East 493 567 39,000  Level Albuquerque Center
04:35PM 32.5411 -108.5103 100° East 492 566 39,000  Level Albuquerque Center
04:36PM 32.5197 -108.3525 99° East 492 566 39,000  Level Albuquerque Center
04:37PM 32.4981 -108.1939 99° East 493 567 39,000  Level Albuquerque Center
04:38PM 32.4764 -108.0364 99° East 492 566 39,000  Level Albuquerque Center
04:39PM 32.4533 -107.8786 100° East 492 566 39,000  Level Albuquerque Center
04:40PM 32.4244 -107.6867 100° East 494 568 39,000  Level Albuquerque Center
04:41PM 32.4017 -107.5278 100° East 493 567 39,000  Level Albuquerque Center
04:42PM 32.3806 -107.3731 99° East 491 565 39,000  Level Albuquerque Center
04:43PM 32.3567 -107.2150 100° East 493 567 39,000  Level Albuquerque Center
04:44PM 32.3319 -107.0344 99° East 491 565 39,000  Level Albuquerque Center
04:45PM 32.3069 -106.8758 101° East 491 565 39,000  Level Albuquerque Center
04:46PM 32.2825 -106.7156 100° East 487 560 39,000  Level Albuquerque Center
04:47PM 32.2581 -106.5586 100° East 486 559 39,000  Level Albuquerque Center
04:48PM 32.2336 -106.4028 100° East 486 559 39,000  Level Albuquerque Center
04:49PM 32.2067 -106.2333 101° East 489 563 39,000  Level Albuquerque Center
04:50PM 32.1833 -106.0900 101° East 490 564 39,000  Level Albuquerque Center
04:51PM 32.1581 -105.9342 101° East 485 558 39,000  Level Albuquerque Center
04:52PM 32.1331 -105.7775 101° East 486 559 39,000 -60 Level Albuquerque Center
04:53PM 32.1075 -105.6217 101° East 484 557 38,900  Descending Albuquerque Center
04:54PM 32.0775 -105.4350 101° East 484 557 39,000  Climbing Albuquerque Center
04:56PM 32.0522 -105.2800 101° East 482 555 39,000 -60 Level Albuquerque Center
04:57PM 32.0261 -105.1267 101° East 479 551 38,900  Descending Albuquerque Center
04:58PM 32.0006 -104.9708 101° East 481 554 39,000  Climbing Albuquerque Center
04:59PM 31.9739 -104.8147 101° East 483 556 39,000  Level Albuquerque Center
05:00PM 31.9483 -104.6586 101° East 484 557 39,000  Level Albuquerque Center
05:01PM 31.9197 -104.5022 102° East 485 558 39,000  Level Albuquerque Center
05:02PM 31.8650 -104.3597 114° Southeast 481 554 39,000  Level Albuquerque Center
05:03PM 31.8067 -104.2164 116° Southeast 481 554 39,000  Level Albuquerque Center
05:04PM 31.7514 -104.0403 110° East 482 555 39,000  Level Albuquerque Center
05:05PM 31.7272 -103.8861 100° East 480 552 39,000  Level Albuquerque Center
05:06PM 31.7000 -103.7283 101° East 482 555 39,000  Level Albuquerque Center
05:07PM 31.6753 -103.5756 101° East 480 552 39,000  Level Albuquerque Center
05:08PM 31.6514 -103.4272 101° East 478 550 39,000  Level Albuquerque Center
05:09PM 31.6408 -103.2708 94° East 480 552 39,000  Level Albuquerque Center
05:10PM 31.6283 -103.1142 95° East 481 554 39,000  Level Albuquerque Center
05:11PM 31.6114 -102.9272 96° East 481 554 39,000  Level Albuquerque Center
05:12PM 31.5975 -102.7703 96° East 481 554 39,000  Level Albuquerque Center
05:13PM 31.5839 -102.6142 96° East 481 554 39,000  Level Albuquerque Center
05:14PM 31.5714 -102.4575 95° East 480 552 39,000  Level Albuquerque Center
05:15PM 31.5564 -102.2989 96° East 484 557 39,000  Level Albuquerque Center
05:16PM 31.5422 -102.1408 96° East 482 555 39,000  Level Albuquerque Center
05:17PM 31.5269 -101.9822 96° East 485 558 39,000  Level Albuquerque Center
05:18PM 31.5158 -101.8261 95° East 483 556 39,000  Level Fort Worth Center
05:19PM 31.4983 -101.6694 97° East 483 556 39,000  Level Fort Worth Center
05:20PM 31.4825 -101.5153 97° East 483 556 39,000 -180 Level Fort Worth Center
05:21PM 31.4706 -101.3639 95° East 483 556 38,700 -1,020 Descending Fort Worth Center
05:22PM 31.4506 -101.2047 98° East 483 556 37,000 -1,740 Descending Fort Worth Center
05:25PM 31.4128 -100.8142 96° East 497 572 32,800 -1,740 Descending Houston Center
05:26PM 31.3950 -100.6558 97° East 491 565 31,000 -1,800 Descending Houston Center
05:27PM 31.3797 -100.4994 96° East 483 556 29,200 -1,020 Descending Houston Center
05:28PM 31.3403 -100.3531 107° East 470 541 29,000 -120 Descending Houston Center
05:29PM 31.2911 -100.2108 112° Southeast 473 544 29,000  Level Houston Center
05:30PM 31.2422 -100.0661 112° Southeast 476 548 29,000  Level Houston Center
05:31PM 31.1842 -99.8939 111° Southeast 476 548 29,000 -360 Level Houston Center
05:32PM 31.1461 -99.7431 106° East 481 554 28,300 -1,020 Descending Houston Center
05:33PM 31.1083 -99.5914 106° East 485 558 27,000 -1,200 Descending Houston Center
05:34PM 31.0706 -99.4392 106° East 488 562 25,900 -1,080 Descending Houston Center
05:35PM 31.0311 -99.2889 107° East 485 558 24,900 -1,080 Descending Houston Center
05:36PM 30.9939 -99.1422 106° East 477 549 23,700 -1,560 Descending Houston Center
05:37PM 30.9567 -98.9950 106° East 470 541 21,800 -1,920 Descending Houston Center
05:38PM 30.9222 -98.8542 106° East 453 521 19,800 -2,040 Descending Houston Center
05:39PM 30.8817 -98.6981 107° East 432 497 17,700 -2,100 Descending Houston Center
05:40PM 30.8489 -98.5653 106° East 427 491 15,600 -2,040 Descending Houston Center
05:41PM 30.8097 -98.4431 110° East 405 466 13,600 -1,980 Descending Houston Center
05:42PM 30.7378 -98.3500 132° Southeast 382 440 11,600 -1,800 Descending Houston Center
05:43PM 30.6672 -98.2614 133° Southeast 373 429 10,000 -840 Descending Houston Center
05:44PM 30.6044 -98.1814 132° Southeast 341 392 9,900 -480 Descending Houston Center
05:45PM 30.5722 -98.0936 113° Southeast 300 345 9,100 -1,260 Descending Houston Center
05:46PM 30.5403 -98.0078 113° Southeast 291 335 7,400 -1,500 Descending Houston Center
05:47PM 30.5103 -97.9256 113° Southeast 281 323 6,100 -1,200 Descending Houston Center
05:48PM 30.4817 -97.8472 113° Southeast 269 310 5,000 -1,080 Descending Houston Center
05:49PM 30.4467 -97.7564 114° Southeast 264 304 3,900 -1,020 Descending Houston Center
05:50PM 30.4061 -97.6903 125° Southeast 263 303 3,000 -600 Descending Houston Center
05:51PM 30.3497 -97.6814 172° South 212 244 2,700 -540 Descending Houston Center
05:52PM 30.3058 -97.6825 181° South 170 196 2,000 -540 Descending Houston Center
05:53PM 30.2672 -97.6808 178° South 145 167 1,700 -540 Descending Houston Center
05:54PM 30.2319 -97.6789 177° South 134 154 900 -840 Descending Houston Center
05:56PM 30.1945 -97.6699 176° South  Level Estimated
06:03PM 30.1945 -97.6699 176° South  Level Estimated
06:04PM 30.1945 -97.6699 176° South  Level Estimated